All
Moree Hospital Airport YXEE Weather
There is no TAF data available at YXEE. Showing TAF data for YMOR (2 mi S).
MRZ Terminal Area Forecast (no data for YXEE)
| Date | Time (AEST) | Flight Rules | Wind Dir. | Speed | Type | Height AGL (ft) | Visibility | Remarks | ||||||
|---|---|---|---|---|---|---|---|---|---|---|---|---|---|---|
| 09-May | 23:00 | VFR | 190° | 4 kt | Clouds and Visibility are OK | >= 6 miles | ||||||||
| 09-May | 22:00 | VFR | 190° | 4 kt | Clouds and Visibility are OK | >= 6 miles | ||||||||
| 09-May | 21:00 | VFR | 190° | 4 kt | Clouds and Visibility are OK | >= 6 miles | ||||||||
| 09-May | 20:00 | VFR | 190° | 4 kt | Clouds and Visibility are OK | >= 6 miles | ||||||||
| 09-May | 19:00 | VFR | 190° | 4 kt | Clouds and Visibility are OK | >= 6 miles | ||||||||
| 09-May | 18:00 | VFR | 300° | 6 kt | Clouds and Visibility are OK | >= 6 miles | ||||||||
There is no METAR data available at YXEE. Showing METAR data for YMOR (2 mi S).
Recent MRZ METAR history (no data for YXEE)
| Date | Time (AEST) | Flight Rules | Wind Dir. | Speed | Type | Height AGL (ft) | Visibility | Temp (°C) | Temp (°F) | Dew Point (°C) | Dew Point (°F) | Rel. Humid. | Pressure | Density Altitude | Remarks |
|---|---|---|---|---|---|---|---|---|---|---|---|---|---|---|---|
| 09-May | 18:00 | VFR | 220° | 5 kt | 10000 meters | 18° | 64° | 3° | 37° | 37% | 1023 mb | 772 ft | |||
| 09-May | 17:00 | VFR | 210° | 4 kt | 10000 meters | 22° | 71° | 4° | 39° | 31% | 1022 mb | 1,281 ft | |||
| 09-May | 16:00 | VFR | 150° | 3 kt | 10000 meters | 23° | 73° | 4° | 39° | 29% | 1022 mb | 1,401 ft | |||
| 09-May | 15:00 | VFR | 50° | 3 kt | 10000 meters | 23° | 73° | 4° | 39° | 29% | 1022 mb | 1,401 ft | |||
| 09-May | 14:00 | VFR | 360° | 5 kt | 10000 meters | 22° | 71° | 4° | 39° | 31% | 1022 mb | 1,281 ft | |||
| 09-May | 13:00 | VFR | 40° | 4 kt | 10000 meters | 22° | 71° | 5° | 41° | 33% | 1022 mb | 1,281 ft | |||
| 09-May | 12:00 | VFR | 50° | 5 kt | 10000 meters | 20° | 68° | 5° | 41° | 37% | 1023 mb | 1,012 ft | |||
| 09-May | 11:00 | VFR | 30° | 5 kt | 10000 meters | 20° | 68° | 6° | 42° | 40% | 1024 mb | 982 ft | |||
| 09-May | 10:00 | VFR | 90° | 7 kt | 10000 meters | 17° | 62° | 6° | 42° | 48% | 1024 mb | 622 ft | |||
| 09-May | 09:00 | VFR | 110° | 5 kt | 10000 meters | 14° | 57° | 6° | 42° | 58% | 1024 mb | 262 ft | |||
| 09-May | 08:00 | VFR | Calm | 10000 meters | 8° | 46° | 5° | 41° | 81% | 1024 mb | -458 ft | ||||
| 09-May | 07:00 | VFR | 230° | 4 kt | 10000 meters | 5° | 41° | 4° | 39° | 93% | 1023 mb | -788 ft | |||
| 09-May | 06:00 | VFR | 180° | 3 kt | 10000 meters | 4° | 39° | 3° | 37° | 93% | 1023 mb | -908 ft | |||
| 09-May | 05:00 | VFR | 260° | 5 kt | 10000 meters | 5° | 41° | 4° | 39° | 93% | 1022 mb | -759 ft | |||
| 09-May | 04:00 | VFR | 250° | 6 kt | 10000 meters | 6° | 42° | 4° | 39° | 87% | 1022 mb | -639 ft | |||
| 09-May | 03:00 | VFR | 210° | 4 kt | 10000 meters | 6° | 42° | 4° | 39° | 87% | 1023 mb | -668 ft | |||
| 09-May | 02:00 | VFR | 150° | 6 kt | 10000 meters | 7° | 44° | 4° | 39° | 81% | 1022 mb | -519 ft | |||
| 09-May | 01:00 | VFR | 220° | 6 kt | 10000 meters | 7° | 44° | 4° | 39° | 81% | 1023 mb | -548 ft | |||
| 09-May | 00:00 | VFR | 220° | 9 kt | 10000 meters | 8° | 46° | 4° | 39° | 76% | 1023 mb | -428 ft | |||
| 08-May | 23:00 | VFR | 220° | 8 kt | 10000 meters | 9° | 48° | 4° | 39° | 71% | 1023 mb | -308 ft | |||
| 08-May | 22:00 | VFR | 230° | 7 kt | 10000 meters | 9° | 48° | 3° | 37° | 66% | 1023 mb | -308 ft | |||
| 08-May | 21:00 | VFR | 220° | 9 kt | 10000 meters | 10° | 50° | 3° | 37° | 62% | 1023 mb | -188 ft | |||
| 08-May | 20:00 | VFR | 240° | 7 kt | 10000 meters | 11° | 51° | 3° | 37° | 58% | 1023 mb | -68 ft | |||
| 08-May | 19:00 | VFR | 240° | 7 kt | 10000 meters | 13° | 55° | 4° | 39° | 54% | 1022 mb | 201 ft |
Login
| Your browser is unsupported. upgrade your browser |
